Time;durP1;ratioP1;P1;durP2;ratioP2;P2;SDS_P1;SDS_P2;PMS_P1;PMS_P2;Temp;Humidity;BMP_temperature;BMP_pressure;BME280_temperature;BME280_humidity;BME280_pressure;Samples;Min_cycle;Max_cycle;Signal;HPM_P1;HPM_P2
2023/12/30 00:00:20;;;;;;;1.77;1.60;;;16.50;69.50;17.40;100201.00;;;;5070232;28;20580;-48
2023/12/30 00:02:47;;;;;;;3.33;1.60;;;16.50;68.70;17.40;100194.00;;;;5070797;28;20170;-48
2023/12/30 00:05:13;;;;;;;3.40;1.90;;;16.60;68.60;17.40;100198.00;;;;5069979;28;20647;-48
2023/12/30 00:07:39;;;;;;;1.97;1.50;;;16.50;68.40;17.40;100206.00;;;;5071485;28;20261;-48
2023/12/30 00:10:05;;;;;;;2.47;1.70;;;16.50;68.30;17.40;100195.00;;;;5071023;28;20184;-48
2023/12/30 00:12:31;;;;;;;2.87;1.90;;;16.60;68.40;17.40;100202.00;;;;5045534;28;20602;-48
2023/12/30 00:14:56;;;;;;;2.53;1.80;;;16.50;68.30;17.40;100203.00;;;;5067596;28;20177;-49
2023/12/30 00:17:22;;;;;;;2.27;1.70;;;16.50;68.40;17.40;100193.00;;;;5068438;28;20183;-48
2023/12/30 00:19:48;;;;;;;1.87;1.67;;;16.50;68.40;17.40;100207.00;;;;5073849;28;20188;-49
2023/12/30 00:22:14;;;;;;;2.43;1.57;;;16.50;68.30;17.40;100207.00;;;;5071322;28;20669;-49
2023/12/30 00:24:44;;;;;;;1.83;1.50;;;16.50;68.30;17.40;100214.00;;;;5073239;28;20174;-54
2023/12/30 00:27:10;;;;;;;3.30;1.90;;;16.50;68.30;17.40;100217.00;;;;5070565;28;20660;-48
2023/12/30 00:29:39;;;;;;;2.90;1.80;;;16.50;68.30;17.40;100229.00;;;;5071710;28;20226;-48
2023/12/30 00:32:06;;;;;;;2.00;1.60;;;16.50;68.30;17.40;100215.00;;;;5071449;28;20207;-48
2023/12/30 00:34:35;;;;;;;2.17;1.77;;;16.50;68.30;17.40;100217.00;;;;5071283;28;20177;-49
2023/12/30 00:37:01;;;;;;;2.87;1.70;;;16.50;68.30;17.40;100229.00;;;;5070945;28;20210;-48
2023/12/30 00:39:27;;;;;;;2.00;1.60;;;16.50;68.30;17.40;100225.00;;;;5075844;28;20172;-48
2023/12/30 00:41:52;;;;;;;2.87;1.90;;;16.50;68.20;17.40;100218.00;;;;5049828;28;20565;-48
2023/12/30 00:44:18;;;;;;;3.37;1.70;;;16.50;68.20;17.40;100228.00;;;;5070846;28;20172;-49
2023/12/30 00:46:44;;;;;;;3.50;1.73;;;16.50;68.20;17.40;100232.00;;;;5070552;28;20185;-49
2023/12/30 00:49:11;;;;;;;2.57;1.60;;;16.40;68.00;17.40;100235.00;;;;5070628;28;20175;-48
2023/12/30 00:51:37;;;;;;;2.43;1.87;;;16.50;68.20;17.40;100237.00;;;;5070637;28;20200;-47
2023/12/30 00:54:02;;;;;;;3.63;2.03;;;16.40;68.20;17.30;100239.00;;;;5070517;28;20176;-48
2023/12/30 00:56:28;;;;;;;3.57;2.00;;;16.40;68.20;17.30;100241.00;;;;5070496;28;20208;-47
2023/12/30 00:58:54;;;;;;;3.07;1.90;;;16.40;68.20;17.30;100253.00;;;;5070077;28;20344;-48
2023/12/30 01:01:20;;;;;;;2.60;1.90;;;16.30;68.10;17.30;100262.00;;;;5069754;28;20204;-48
2023/12/30 01:03:45;;;;;;;3.77;1.93;;;16.40;68.00;17.30;100261.00;;;;5069032;28;20211;-48
2023/12/30 01:06:11;;;;;;;2.77;1.77;;;16.40;67.90;17.30;100252.00;;;;5069211;28;20182;-47
2023/12/30 01:08:37;;;;;;;2.03;1.70;;;16.40;67.90;17.30;100256.00;;;;5069215;28;20182;-48
2023/12/30 01:11:05;;;;;;;3.27;2.00;;;16.30;67.90;17.30;100263.00;;;;5047360;28;20693;-48
2023/12/30 01:13:31;;;;;;;3.33;2.00;;;16.30;67.90;17.30;100251.00;;;;5069355;28;20248;-48
2023/12/30 01:15:57;;;;;;;3.17;2.13;;;16.40;68.10;17.30;100252.00;;;;5068832;28;20205;-48
2023/12/30 01:18:24;;;;;;;3.43;1.80;;;16.30;68.10;17.30;100247.00;;;;5064808;28;20187;-48
2023/12/30 01:20:50;;;;;;;2.73;1.90;;;16.30;68.10;17.30;100248.00;;;;5068511;28;20570;-48
2023/12/30 01:23:16;;;;;;;3.93;1.93;;;16.20;68.00;17.30;100249.00;;;;5068955;28;20183;-48
2023/12/30 01:25:42;;;;;;;3.00;1.80;;;16.30;68.20;17.20;100259.00;;;;5072689;28;20184;-48
2023/12/30 01:28:08;;;;;;;3.57;2.10;;;16.30;68.20;17.20;100257.00;;;;5059661;28;20181;-48
2023/12/30 01:30:36;;;;;;;2.37;1.80;;;16.30;68.10;17.20;100263.00;;;;5068394;28;20194;-48
2023/12/30 01:33:02;;;;;;;2.40;1.73;;;16.20;68.00;17.20;100267.00;;;;5068884;28;20203;-48
2023/12/30 01:35:28;;;;;;;2.43;2.10;;;16.30;68.10;17.20;100273.00;;;;5068586;28;20226;-48
2023/12/30 01:37:54;;;;;;;4.57;1.90;;;16.20;68.80;17.20;100282.00;;;;5068452;28;20701;-48
2023/12/30 01:40:19;;;;;;;3.63;2.03;;;16.20;68.00;17.20;100278.00;;;;5068164;28;20167;-49
2023/12/30 01:42:45;;;;;;;2.40;1.83;;;16.20;68.00;17.20;100287.00;;;;5068400;28;20170;-49
2023/12/30 01:45:12;;;;;;;5.27;2.10;;;16.20;68.00;17.20;100276.00;;;;5068418;28;20174;-49
2023/12/30 01:47:37;;;;;;;2.07;1.60;;;16.20;68.10;17.10;100286.00;;;;5065338;28;20168;-49
2023/12/30 01:50:09;;;;;;;3.73;2.00;;;16.20;68.10;17.10;100290.00;;;;5074459;28;20264;-48
2023/12/30 01:52:35;;;;;;;4.30;2.20;;;16.10;67.90;17.10;100307.00;;;;5068327;28;20341;-49
2023/12/30 01:55:01;;;;;;;2.93;1.90;;;16.10;68.00;17.10;100307.00;;;;5016253;28;20278;-49
2023/12/30 01:57:27;;;;;;;3.03;1.93;;;16.10;68.00;17.10;100323.00;;;;5042482;28;20189;-49
2023/12/30 01:59:53;;;;;;;3.30;2.07;;;16.10;68.00;17.10;100333.00;;;;5042805;28;20180;-49
2023/12/30 02:02:21;;;;;;;2.80;1.90;;;16.10;68.20;17.10;100347.00;;;;5045249;28;20190;-48
2023/12/30 02:04:47;;;;;;;3.17;1.93;;;16.10;68.10;17.10;100336.00;;;;5068426;28;20244;-48
2023/12/30 02:07:12;;;;;;;3.40;2.03;;;16.10;68.10;17.10;100330.00;;;;5042543;28;20669;-48
2023/12/30 02:09:38;;;;;;;2.27;1.70;;;16.00;68.10;17.10;100340.00;;;;5067987;28;20234;-49
2023/12/30 02:12:04;;;;;;;2.30;1.90;;;16.10;68.20;17.10;100338.00;;;;5070683;28;21777;-49
2023/12/30 02:14:30;;;;;;;3.13;2.03;;;16.00;68.10;17.10;100336.00;;;;5065105;28;20630;-50
2023/12/30 02:16:57;;;;;;;2.73;2.07;;;16.00;68.10;17.00;100344.00;;;;5065561;28;20208;-49
2023/12/30 02:19:23;;;;;;;3.20;2.23;;;16.00;68.20;17.00;100342.00;;;;5071497;28;20216;-48
2023/12/30 02:21:49;;;;;;;3.63;2.00;;;16.10;68.30;17.00;100350.00;;;;5025591;28;20248;-49
2023/12/30 02:24:15;;;;;;;4.30;2.13;;;16.00;68.20;17.00;100349.00;;;;5068221;28;20232;-48
2023/12/30 02:26:40;;;;;;;3.17;2.00;;;16.00;68.20;17.00;100343.00;;;;5068312;28;20588;-49
2023/12/30 02:29:07;;;;;;;2.43;1.80;;;16.00;68.30;17.00;100354.00;;;;5067369;28;20193;-48
2023/12/30 02:31:35;;;;;;;2.83;1.80;;;16.00;68.40;17.00;100346.00;;;;5047318;28;20201;-48
2023/12/30 02:34:01;;;;;;;2.40;1.73;;;16.00;68.50;17.00;100350.00;;;;5068175;28;20182;-48
2023/12/30 02:36:26;;;;;;;3.30;2.10;;;16.00;68.40;17.00;100352.00;;;;5067730;28;20213;-48
2023/12/30 02:38:52;;;;;;;4.00;2.17;;;16.00;68.50;17.00;100343.00;;;;5067634;28;20184;-48
2023/12/30 02:41:18;;;;;;;3.00;1.90;;;15.90;68.50;17.00;100357.00;;;;5041566;28;20692;-49
2023/12/30 02:43:58;;;;;;;3.30;2.10;;;15.90;68.80;17.00;100348.00;;;;5067548;28;20171;-49
2023/12/30 02:46:24;;;;;;;3.33;2.10;;;15.90;68.80;16.90;100354.00;;;;5039175;28;20235;-48
2023/12/30 02:48:50;;;;;;;2.20;1.60;;;16.00;68.90;16.90;100347.00;;;;5067208;28;20184;-48
2023/12/30 02:51:16;;;;;;;3.33;1.93;;;15.90;68.80;16.90;100344.00;;;;5067441;28;20209;-49
2023/12/30 02:53:41;;;;;;;4.07;2.30;;;15.90;68.80;16.90;100344.00;;;;5067759;28;20305;-49
2023/12/30 02:56:20;;;;;;;2.70;2.00;;;15.90;68.70;16.90;100347.00;;;;5067185;28;20288;-49
2023/12/30 02:59:09;;;;;;;3.47;1.90;;;15.90;68.80;16.90;100348.00;;;;5064075;28;20716;-49
2023/12/30 03:01:34;;;;;;;3.60;1.80;;;15.90;68.80;16.90;100360.00;;;;5067521;28;20215;-51
2023/12/30 03:04:00;;;;;;;3.50;1.90;;;15.90;68.80;16.90;100364.00;;;;5071665;28;20165;-50
2023/12/30 03:06:26;;;;;;;3.60;1.80;;;15.80;68.80;16.90;100362.00;;;;5067682;28;20201;-49
2023/12/30 03:08:52;;;;;;;3.77;2.03;;;15.90;68.90;16.90;100358.00;;;;5045194;28;20253;-48
2023/12/30 03:11:18;;;;;;;3.20;1.90;;;15.90;68.90;16.90;100361.00;;;;5066576;28;20198;-48
2023/12/30 03:13:44;;;;;;;2.93;2.00;;;15.90;68.80;16.90;100361.00;;;;5067577;28;20224;-49
2023/12/30 03:16:16;;;;;;;2.23;1.90;;;15.90;68.80;16.80;100358.00;;;;5067423;28;20197;-48
2023/12/30 03:18:42;;;;;;;2.70;2.00;;;15.80;68.80;16.80;100354.00;;;;5063945;28;20175;-49
2023/12/30 03:21:09;;;;;;;3.00;1.90;;;15.80;68.70;16.80;100360.00;;;;5032373;28;20745;-48
2023/12/30 03:23:36;;;;;;;3.50;2.07;;;15.90;68.90;16.80;100356.00;;;;5067079;28;20178;-49
2023/12/30 03:26:03;;;;;;;2.20;1.77;;;15.80;68.90;16.80;100355.00;;;;5067429;28;20179;-49
2023/12/30 03:28:29;;;;;;;3.47;2.00;;;15.80;68.90;16.80;100361.00;;;;5067318;28;20269;-49
2023/12/30 03:30:54;;;;;;;3.70;2.07;;;15.80;68.90;16.80;100368.00;;;;5066616;28;20198;-48
2023/12/30 03:33:20;;;;;;;2.27;2.03;;;15.80;69.10;16.80;100366.00;;;;5067008;28;20178;-48
2023/12/30 03:35:46;;;;;;;3.40;2.20;;;15.80;69.00;16.80;100368.00;;;;5066685;28;20245;-48
2023/12/30 03:38:12;;;;;;;2.97;1.87;;;15.80;68.90;16.80;100374.00;;;;5067090;28;20179;-49
2023/12/30 03:40:37;;;;;;;2.63;1.80;;;15.80;69.10;16.80;100370.00;;;;5068398;28;20220;-49
2023/12/30 03:43:03;;;;;;;4.17;2.10;;;15.80;69.00;16.80;100368.00;;;;5070927;28;20309;-48
2023/12/30 03:45:29;;;;;;;2.73;1.87;;;15.80;69.10;16.80;100376.00;;;;5070796;28;20199;-48
2023/12/30 03:47:55;;;;;;;3.70;2.10;;;15.80;69.00;16.80;100371.00;;;;5070506;28;20211;-48
2023/12/30 03:50:20;;;;;;;3.63;2.27;;;15.80;69.00;16.80;100387.00;;;;5070334;28;20223;-49
2023/12/30 03:52:46;;;;;;;2.53;1.70;;;15.80;69.00;16.80;100378.00;;;;5070793;28;20517;-48
2023/12/30 03:55:12;;;;;;;3.00;2.00;;;15.70;68.80;16.80;100374.00;;;;5056339;28;20649;-48
2023/12/30 03:57:38;;;;;;;2.80;1.90;;;15.70;69.00;16.70;100366.00;;;;5066671;28;20192;-48
2023/12/30 04:00:07;;;;;;;3.10;2.03;;;15.70;69.00;16.70;100380.00;;;;5070271;28;20178;-48
2023/12/30 04:02:32;;;;;;;2.43;1.73;;;15.70;69.10;16.70;100377.00;;;;5071500;28;20182;-48
2023/12/30 04:04:58;;;;;;;2.73;1.90;;;15.70;69.00;16.70;100381.00;;;;5071366;28;20553;-48
2023/12/30 04:07:24;;;;;;;4.37;2.00;;;15.70;69.00;16.70;100388.00;;;;5071568;28;20178;-48
2023/12/30 04:09:49;;;;;;;3.70;2.10;;;15.70;69.00;16.70;100376.00;;;;5080299;28;20182;-48
2023/12/30 04:12:15;;;;;;;3.13;2.00;;;15.70;69.00;16.70;100390.00;;;;5072173;28;20201;-48
2023/12/30 04:14:41;;;;;;;2.27;1.73;;;15.70;69.00;16.70;100375.00;;;;5072303;28;20193;-50
2023/12/30 04:17:06;;;;;;;3.13;1.80;;;15.70;69.00;16.70;100387.00;;;;5066285;28;20614;-48
2023/12/30 04:19:32;;;;;;;2.17;1.80;;;15.70;69.00;16.70;100386.00;;;;5071114;28;20216;-48
2023/12/30 04:21:58;;;;;;;3.87;2.30;;;15.70;69.00;16.70;100387.00;;;;5075086;28;20297;-48
2023/12/30 04:24:24;;;;;;;2.67;1.83;;;15.70;69.00;16.70;100383.00;;;;5075563;28;20228;-48
2023/12/30 04:26:51;;;;;;;3.60;1.93;;;15.70;69.10;16.70;100384.00;;;;5071454;28;20178;-48
2023/12/30 04:29:16;;;;;;;3.80;2.00;;;15.60;69.20;16.60;100389.00;;;;5043105;28;20693;-48
2023/12/30 04:31:42;;;;;;;3.57;2.33;;;15.60;71.70;16.60;100394.00;;;;5070763;28;20198;-47
2023/12/30 04:34:08;;;;;;;4.73;2.27;;;15.60;70.00;16.60;100384.00;;;;5070679;28;20178;-48
2023/12/30 04:36:34;;;;;;;2.90;2.20;;;15.70;69.70;16.60;100384.00;;;;5071021;28;20753;-48
2023/12/30 04:39:00;;;;;;;3.83;2.00;;;15.60;69.40;16.60;100385.00;;;;5070712;28;20181;-48
2023/12/30 04:41:26;;;;;;;4.03;1.93;;;15.60;69.50;16.60;100376.00;;;;5070577;28;20190;-49
2023/12/30 04:43:52;;;;;;;4.30;2.10;;;15.70;69.70;16.60;100386.00;;;;5070663;28;20192;-49
2023/12/30 04:46:18;;;;;;;4.13;2.20;;;15.70;69.50;16.60;100386.00;;;;5070318;28;20649;-49
2023/12/30 04:48:44;;;;;;;3.27;1.90;;;15.60;69.50;16.60;100386.00;;;;5070451;28;20184;-48
2023/12/30 04:51:10;;;;;;;3.40;2.00;;;15.60;69.50;16.60;100388.00;;;;5070028;28;20993;-49
2023/12/30 04:53:36;;;;;;;2.37;1.80;;;15.60;69.50;16.60;100380.00;;;;5070683;28;20264;-49
2023/12/30 04:56:02;;;;;;;2.23;1.67;;;15.60;69.50;16.60;100397.00;;;;5070923;28;20564;-50
2023/12/30 04:58:27;;;;;;;3.17;1.90;;;15.60;69.40;16.60;100391.00;;;;5070579;28;20175;-49
2023/12/30 05:00:53;;;;;;;3.20;1.90;;;15.60;69.40;16.60;100398.00;;;;5070333;28;20201;-49
2023/12/30 05:03:19;;;;;;;3.10;2.00;;;15.60;69.50;16.60;100398.00;;;;5070353;28;20177;-49
2023/12/30 05:05:45;;;;;;;3.20;1.70;;;15.60;69.40;16.50;100411.00;;;;5070290;28;20257;-49
2023/12/30 05:08:10;;;;;;;2.10;1.60;;;15.60;69.40;16.50;100418.00;;;;5070178;28;20177;-49
2023/12/30 05:10:36;;;;;;;3.00;1.80;;;15.60;69.50;16.50;100421.00;;;;5070038;28;20262;-50
2023/12/30 05:13:02;;;;;;;3.47;1.90;;;15.50;69.30;16.50;100414.00;;;;5070197;28;20654;-50
2023/12/30 05:15:28;;;;;;;2.47;1.70;;;15.50;69.30;16.50;100418.00;;;;5043716;28;20261;-50
2023/12/30 05:17:53;;;;;;;2.10;1.80;;;15.50;69.30;16.50;100423.00;;;;5065748;28;20177;-50
2023/12/30 05:20:19;;;;;;;2.57;1.90;;;15.50;69.40;16.50;100423.00;;;;5069864;28;20173;-49
2023/12/30 05:22:45;;;;;;;3.03;1.93;;;15.50;69.40;16.50;100422.00;;;;5070053;28;20174;-49
2023/12/30 05:25:10;;;;;;;2.23;1.80;;;15.50;69.40;16.50;100420.00;;;;5069883;28;20166;-49
2023/12/30 05:27:38;;;;;;;3.80;1.90;;;15.50;69.30;16.50;100423.00;;;;5069974;28;20181;-50
2023/12/30 05:30:08;;;;;;;3.47;1.80;;;15.50;69.30;16.50;100427.00;;;;5043934;28;20401;-50
2023/12/30 05:32:34;;;;;;;2.57;1.70;;;15.50;69.30;16.50;100400.00;;;;5070116;28;20209;-49
2023/12/30 05:35:00;;;;;;;3.43;2.03;;;15.50;69.30;16.40;100420.00;;;;5063894;28;20174;-49
2023/12/30 05:37:26;;;;;;;2.40;1.73;;;15.50;69.20;16.40;100414.00;;;;5069239;28;20268;-49
2023/12/30 05:39:52;;;;;;;3.67;1.73;;;15.50;69.20;16.40;100436.00;;;;5068939;28;20170;-49
2023/12/30 05:42:17;;;;;;;3.10;1.87;;;15.50;69.30;16.40;100427.00;;;;5042287;28;20247;-49
2023/12/30 05:44:43;;;;;;;2.20;1.70;;;15.40;69.20;16.40;100434.00;;;;5069435;28;20192;-50
2023/12/30 05:47:09;;;;;;;2.20;1.70;;;15.50;69.20;16.40;100425.00;;;;5069042;28;20191;-48
2023/12/30 05:49:37;;;;;;;4.03;1.87;;;15.40;69.20;16.40;100425.00;;;;5068840;28;20186;-56
2023/12/30 05:52:03;;;;;;;2.70;1.83;;;15.50;69.30;16.40;100422.00;;;;5069138;28;20248;-49
2023/12/30 05:54:29;;;;;;;2.10;1.60;;;15.40;69.20;16.40;100423.00;;;;5069169;28;20178;-49
2023/12/30 05:56:55;;;;;;;4.60;1.93;;;15.50;69.30;16.40;100435.00;;;;5069122;28;20278;-49
2023/12/30 05:59:20;;;;;;;2.83;1.80;;;15.40;69.30;16.40;100431.00;;;;5044015;28;20183;-49
2023/12/30 06:01:46;;;;;;;2.10;1.70;;;15.40;69.30;16.40;100433.00;;;;5074062;28;20644;-49
2023/12/30 06:04:13;;;;;;;3.13;1.87;;;15.40;69.20;16.40;100443.00;;;;5065398;28;20169;-49
2023/12/30 06:06:40;;;;;;;3.07;1.80;;;15.40;69.30;16.40;100443.00;;;;5042523;28;20174;-50
2023/12/30 06:09:06;;;;;;;3.30;1.70;;;15.40;69.50;16.40;100445.00;;;;5068839;28;20752;-49
2023/12/30 06:11:32;;;;;;;4.97;2.03;;;15.40;69.40;16.40;100445.00;;;;5041856;28;20700;-49
2023/12/30 06:13:57;;;;;;;2.67;1.60;;;15.40;70.20;16.30;100455.00;;;;5075372;28;20724;-49
2023/12/30 06:16:23;;;;;;;4.47;1.97;;;15.40;69.50;16.30;100450.00;;;;5068451;28;20197;-50
2023/12/30 06:18:49;;;;;;;3.00;1.73;;;15.40;69.60;16.30;100446.00;;;;5068308;28;20174;-49
2023/12/30 06:21:14;;;;;;;4.63;2.13;;;15.40;69.70;16.30;100436.00;;;;5063646;28;20194;-49
2023/12/30 06:23:40;;;;;;;2.53;1.90;;;15.30;69.70;16.30;100453.00;;;;5041908;28;20672;-50
2023/12/30 06:26:06;;;;;;;2.73;1.80;;;15.40;69.80;16.30;100475.00;;;;5044772;28;20182;-53
2023/12/30 06:28:31;;;;;;;3.93;1.97;;;15.40;69.80;16.30;100457.00;;;;5069259;28;20201;-53
2023/12/30 06:30:57;;;;;;;5.40;2.03;;;15.40;69.80;16.30;100458.00;;;;5067984;28;20312;-50
2023/12/30 06:33:23;;;;;;;6.67;2.10;;;15.30;69.70;16.30;100460.00;;;;5041447;28;20676;-49
2023/12/30 06:35:49;;;;;;;2.13;1.50;;;15.30;69.70;16.30;100466.00;;;;5062778;28;20248;-59
2023/12/30 06:38:15;;;;;;;3.17;1.70;;;15.40;69.80;16.30;100409.00;;;;5042646;28;20558;-50
2023/12/30 06:40:45;;;;;;;2.90;1.60;;;15.40;69.80;16.30;100476.00;;;;5038202;28;20829;-49
2023/12/30 06:43:14;;;;;;;3.80;2.00;;;15.40;69.80;16.30;100467.00;;;;5077902;28;20192;-49
2023/12/30 06:45:39;;;;;;;4.43;1.90;;;15.40;69.80;16.30;100444.00;;;;5068589;28;20198;-50
2023/12/30 06:48:05;;;;;;;3.93;1.70;;;15.30;70.00;16.30;100473.00;;;;5040059;28;20652;-49
2023/12/30 06:50:31;;;;;;;3.17;1.90;;;15.30;70.00;16.30;100478.00;;;;5067991;28;20584;-49
2023/12/30 06:52:58;;;;;;;3.00;1.70;;;15.30;70.00;16.30;100495.00;;;;5045746;28;20177;-49
2023/12/30 06:55:24;;;;;;;2.30;1.73;;;15.30;70.00;16.30;100498.00;;;;5068524;28;20177;-49
2023/12/30 06:57:50;;;;;;;2.50;1.70;;;15.30;70.00;16.30;100501.00;;;;5042339;28;20204;-49
2023/12/30 07:00:16;;;;;;;2.60;1.80;;;15.40;70.00;16.30;100496.00;;;;5067925;28;20184;-49
2023/12/30 07:02:42;;;;;;;2.37;1.80;;;15.30;69.90;16.30;100489.00;;;;5042646;28;20217;-49
2023/12/30 07:05:08;;;;;;;2.80;2.00;;;15.30;69.80;16.20;100501.00;;;;5068248;28;20633;-50
2023/12/30 07:07:34;;;;;;;2.20;1.50;;;15.30;69.90;16.20;100501.00;;;;5068471;28;20181;-50
2023/12/30 07:10:00;;;;;;;2.13;1.40;;;15.30;69.80;16.20;100502.00;;;;5067396;28;20185;-50
2023/12/30 07:12:26;;;;;;;1.87;1.70;;;15.30;69.80;16.20;100501.00;;;;5068076;28;20204;-50
2023/12/30 07:14:52;;;;;;;2.17;1.87;;;15.30;69.90;16.20;100509.00;;;;5071140;28;20182;-50
2023/12/30 07:17:17;;;;;;;1.70;1.60;;;15.30;69.80;16.20;100518.00;;;;5066316;28;20232;-50
2023/12/30 07:19:43;;;;;;;2.50;1.77;;;15.30;69.80;16.20;100515.00;;;;5049395;28;20235;-50
2023/12/30 07:22:09;;;;;;;2.90;1.77;;;15.30;69.90;16.20;100520.00;;;;5071136;28;20213;-49
2023/12/30 07:24:37;;;;;;;3.60;1.83;;;15.30;69.90;16.20;100518.00;;;;5074978;28;20215;-48
2023/12/30 07:27:03;;;;;;;2.13;1.70;;;15.20;69.90;16.20;100510.00;;;;5070601;28;20207;-49
2023/12/30 07:29:29;;;;;;;2.27;1.53;;;15.20;69.80;16.00;100519.00;;;;5043797;28;20324;-49
2023/12/30 07:31:55;;;;;;;2.10;1.80;;;15.30;69.90;16.20;100535.00;;;;5048721;28;20213;-49
2023/12/30 07:34:20;;;;;;;2.40;1.70;;;15.20;69.70;16.20;100527.00;;;;5044613;28;20186;-49
2023/12/30 07:36:47;;;;;;;2.37;1.50;;;15.20;69.70;16.20;100516.00;;;;5068736;28;20201;-49
2023/12/30 07:39:13;;;;;;;2.40;1.40;;;15.20;69.80;16.20;100522.00;;;;5068015;28;20174;-49
2023/12/30 07:41:39;;;;;;;2.17;1.70;;;15.20;69.80;16.20;100520.00;;;;5074489;28;20324;-49
2023/12/30 07:44:05;;;;;;;1.73;1.50;;;15.20;69.80;16.20;100516.00;;;;5070560;28;20672;-49
2023/12/30 07:46:30;;;;;;;2.07;1.53;;;15.20;69.80;16.20;100526.00;;;;5053773;28;20192;-50
2023/12/30 07:48:56;;;;;;;2.70;1.80;;;15.20;69.80;16.20;100526.00;;;;5063222;28;20204;-49
2023/12/30 07:51:23;;;;;;;3.60;1.90;;;15.20;69.80;16.20;100520.00;;;;5072393;28;20216;-51
2023/12/30 07:53:49;;;;;;;2.63;1.93;;;15.10;70.70;16.20;100544.00;;;;5083148;28;20569;-49
2023/12/30 07:56:16;;;;;;;3.57;1.57;;;15.10;70.40;16.20;100540.00;;;;5071840;28;20738;-49
2023/12/30 07:58:42;;;;;;;2.00;1.67;;;15.20;70.30;16.20;100547.00;;;;5070737;28;20231;-49
2023/12/30 08:01:08;;;;;;;2.17;1.70;;;15.20;70.50;16.10;100545.00;;;;5072023;28;21831;-49
2023/12/30 08:03:34;;;;;;;5.20;1.70;;;15.20;70.60;16.10;100552.00;;;;5063961;28;20178;-49
2023/12/30 08:05:59;;;;;;;2.10;1.70;;;15.20;70.70;16.10;100491.00;;;;5078701;28;20177;-49
2023/12/30 08:08:25;;;;;;;2.67;1.70;;;15.20;70.60;16.10;100546.00;;;;5075549;28;20190;-49
2023/12/30 08:10:51;;;;;;;1.30;1.20;;;15.30;70.70;16.20;100551.00;;;;5070761;28;20259;-50
2023/12/30 08:13:16;;;;;;;2.30;1.60;;;15.40;70.70;16.20;100557.00;;;;5070565;28;20181;-50
2023/12/30 08:15:42;;;;;;;1.47;1.37;;;15.50;70.70;16.30;100549.00;;;;5071189;28;20684;-49
2023/12/30 08:18:08;;;;;;;3.67;1.87;;;15.60;70.50;16.30;100549.00;;;;5067520;28;20240;-49
2023/12/30 08:20:34;;;;;;;2.13;1.60;;;15.70;70.80;16.40;100555.00;;;;5047426;28;20691;-48
2023/12/30 08:22:59;;;;;;;1.80;1.40;;;15.80;70.70;16.50;100563.00;;;;5062208;28;20236;-48
2023/12/30 08:25:25;;;;;;;7.67;1.60;;;16.00;70.60;16.60;100562.00;;;;5075202;28;20170;-49
2023/12/30 08:27:51;;;;;;;2.47;1.70;;;16.10;70.60;16.70;100568.00;;;;5065830;28;20231;-49
2023/12/30 08:30:17;;;;;;;2.27;1.50;;;16.20;70.40;16.70;100560.00;;;;5068974;28;20243;-49
2023/12/30 08:32:42;;;;;;;2.03;1.50;;;16.30;70.20;16.90;100565.00;;;;5068991;28;20194;-49
2023/12/30 08:35:10;;;;;;;3.87;1.43;;;16.50;70.10;17.00;100564.00;;;;5069647;28;20190;-50
2023/12/30 08:37:36;;;;;;;2.20;1.53;;;16.70;70.00;17.10;100575.00;;;;5070637;28;20218;-49
2023/12/30 08:40:06;;;;;;;2.17;1.50;;;16.80;69.80;17.20;100561.00;;;;5070230;28;20179;-49
2023/12/30 08:42:34;;;;;;;1.97;1.67;;;16.90;69.80;17.30;100573.00;;;;5074750;28;20287;-49
2023/12/30 08:45:01;;;;;;;2.33;1.50;;;17.00;69.80;17.40;100568.00;;;;5072370;28;20611;-50
2023/12/30 08:47:31;;;;;;;2.23;1.70;;;17.00;69.60;17.50;100578.00;;;;5065743;28;20191;-49
2023/12/30 08:49:57;;;;;;;1.80;1.60;;;17.10;69.70;17.50;100582.00;;;;5070854;28;20199;-49
2023/12/30 08:52:23;;;;;;;1.90;1.67;;;17.20;69.80;17.60;100591.00;;;;5070692;28;20670;-49
2023/12/30 08:54:49;;;;;;;2.47;1.70;;;17.20;69.70;17.70;100586.00;;;;5070990;28;20599;-50
2023/12/30 08:57:14;;;;;;;2.63;1.50;;;17.30;69.90;17.80;100583.00;;;;5056630;28;20487;-49
2023/12/30 08:59:40;;;;;;;1.60;1.40;;;17.30;69.80;17.80;100594.00;;;;5074902;28;20186;-50
2023/12/30 09:02:06;;;;;;;2.20;1.70;;;17.30;69.90;17.80;100589.00;;;;5070234;28;20247;-50
2023/12/30 09:04:32;;;;;;;1.40;1.30;;;17.30;69.90;17.90;100588.00;;;;5063752;28;20178;-50
2023/12/30 09:06:57;;;;;;;1.90;1.60;;;17.30;69.90;17.90;100581.00;;;;5068202;28;20183;-50
2023/12/30 09:09:23;;;;;;;2.67;1.67;;;17.40;70.10;17.90;100594.00;;;;5064641;28;20190;-50
2023/12/30 09:11:49;;;;;;;1.97;1.67;;;17.40;70.30;18.00;100563.00;;;;5070156;28;20209;-50
2023/12/30 09:14:14;;;;;;;0.97;0.97;;;17.40;70.30;18.00;100596.00;;;;5070503;28;20200;-49
2023/12/30 09:16:40;;;;;;;1.53;1.33;;;17.50;70.30;18.10;100604.00;;;;5062022;28;20208;-49
2023/12/30 09:19:06;;;;;;;1.77;1.47;;;17.50;70.50;18.10;100609.00;;;;5068955;28;20439;-50
2023/12/30 09:21:32;;;;;;;1.57;1.40;;;17.40;70.50;18.10;100607.00;;;;5070240;28;20372;-50
2023/12/30 09:23:57;;;;;;;1.40;1.30;;;17.50;70.50;18.10;100611.00;;;;5069969;28;20679;-50
2023/12/30 09:26:23;;;;;;;1.97;1.60;;;17.50;70.50;18.20;100608.00;;;;5070179;28;20181;-50
2023/12/30 09:28:49;;;;;;;2.50;1.33;;;17.50;70.40;18.20;100619.00;;;;5069918;28;20651;-50
2023/12/30 09:31:16;;;;;;;5.03;2.67;;;17.60;70.50;18.20;100609.00;;;;5069973;28;20236;-50
2023/12/30 09:33:42;;;;;;;22.67;9.60;;;17.50;70.60;18.30;100613.00;;;;5066727;28;20260;-49
2023/12/30 09:36:07;;;;;;;30.10;11.70;;;17.60;71.90;18.30;100618.00;;;;5069323;28;20251;-49
2023/12/30 09:38:33;;;;;;;32.87;12.93;;;17.60;72.60;18.30;100617.00;;;;5042413;28;20189;-49
2023/12/30 09:40:59;;;;;;;33.03;11.70;;;17.60;73.00;18.30;100609.00;;;;5070305;28;20203;-49
2023/12/30 09:43:28;;;;;;;28.27;11.27;;;17.70;73.50;18.40;100620.00;;;;5043280;28;20188;-50
2023/12/30 09:45:55;;;;;;;34.97;12.30;;;17.70;73.60;18.20;100620.00;;;;5077794;28;20291;-51
2023/12/30 09:48:26;;;;;;;31.43;12.60;;;17.70;74.00;18.40;100619.00;;;;5045733;28;20181;-50
2023/12/30 09:50:55;;;;;;;32.10;12.63;;;17.70;74.40;18.40;100618.00;;;;5069674;28;20231;-50
2023/12/30 09:53:22;;;;;;;28.17;12.50;;;17.70;74.90;18.50;100624.00;;;;5050767;28;20182;-51
2023/12/30 09:55:51;;;;;;;34.10;12.47;;;17.80;75.80;18.50;100613.00;;;;5062359;28;20243;-49
2023/12/30 09:58:20;;;;;;;24.33;11.53;;;17.80;76.50;18.50;100622.00;;;;5072458;28;20203;-50
2023/12/30 10:00:46;;;;;;;33.07;11.23;;;17.90;76.20;18.50;100616.00;;;;5080711;28;20204;-50
2023/12/30 10:03:13;;;;;;;26.73;11.50;;;17.80;76.50;18.50;100606.00;;;;5069498;28;20178;-50
2023/12/30 10:05:39;;;;;;;24.20;10.80;;;17.90;76.60;18.50;100623.00;;;;5069954;28;20173;-49
2023/12/30 10:08:05;;;;;;;25.10;10.53;;;17.90;75.90;18.60;100625.00;;;;5069525;28;20256;-50
2023/12/30 10:10:48;;;;;;;21.10;9.43;;;17.80;75.50;18.60;100618.00;;;;5069200;28;20169;-50
2023/12/30 10:13:17;;;;;;;23.93;10.27;;;17.80;75.30;18.60;100617.00;;;;5065174;28;20181;-50
2023/12/30 10:15:43;;;;;;;21.97;9.03;;;17.80;75.30;18.60;100622.00;;;;5065102;28;20727;-50
2023/12/30 10:18:09;;;;;;;19.67;9.33;;;17.70;74.90;18.60;100625.00;;;;5034476;28;20238;-50
2023/12/30 10:20:41;;;;;;;21.40;9.67;;;17.80;74.90;18.50;100615.00;;;;5069018;28;20188;-50
2023/12/30 10:23:07;;;;;;;21.93;9.30;;;17.70;74.70;18.50;100625.00;;;;5068068;28;20261;-51
2023/12/30 10:25:33;;;;;;;20.07;8.93;;;17.80;74.60;18.60;100626.00;;;;5069531;28;20248;-50
2023/12/30 10:27:59;;;;;;;19.17;9.20;;;17.80;74.50;18.60;100623.00;;;;5069321;28;20265;-50
2023/12/30 10:30:24;;;;;;;19.47;8.13;;;17.80;74.40;18.60;100617.00;;;;5064134;28;20174;-50
2023/12/30 10:32:50;;;;;;;18.53;8.37;;;17.80;75.00;18.60;100613.00;;;;5047496;28;20593;-51
2023/12/30 10:35:16;;;;;;;21.10;9.03;;;17.80;75.10;18.60;100604.00;;;;5041743;28;20332;-49
2023/12/30 10:37:45;;;;;;;20.30;8.90;;;17.90;75.50;18.60;100608.00;;;;5046102;28;20233;-50
2023/12/30 10:40:10;;;;;;;19.27;7.73;;;17.90;75.60;18.70;100595.00;;;;5068617;28;20635;-50